createdAt,value
2022-08-28T00:01:40.036Z,101655.31
2022-08-28T00:04:12.549Z,101656.47
2022-08-28T00:06:45.893Z,101654.84
2022-08-28T00:09:18.899Z,101655.00
2022-08-28T00:11:51.424Z,101654.25
2022-08-28T00:14:24.912Z,101660.59
2022-08-28T00:16:57.412Z,101661.56
2022-08-28T00:19:29.994Z,101666.13
2022-08-28T00:22:04.140Z,101666.31
2022-08-28T00:24:36.842Z,101655.66
2022-08-28T00:27:27.996Z,101659.31
2022-08-28T00:30:00.491Z,101665.69
2022-08-28T00:32:34.939Z,101667.66
2022-08-28T00:35:07.872Z,101662.47
2022-08-28T00:37:40.365Z,101675.13
2022-08-28T00:40:18.426Z,101670.91
2022-08-28T00:43:03.081Z,101665.75
2022-08-28T00:45:39.884Z,101668.56
2022-08-28T00:48:12.919Z,101663.44
2022-08-28T00:51:04.147Z,101669.75
2022-08-28T00:53:36.793Z,101669.88
2022-08-28T00:56:13.297Z,101667.38
2022-08-28T00:58:47.684Z,101664.81
2022-08-28T01:01:20.158Z,101674.63
2022-08-28T01:03:52.669Z,101675.69
2022-08-28T01:06:25.140Z,101673.03
2022-08-28T01:08:59.019Z,101682.91
2022-08-28T01:11:32.976Z,101683.81
2022-08-28T01:14:06.444Z,101681.22
2022-08-28T01:16:40.149Z,101681.22
2022-08-28T01:19:23.365Z,101682.19
2022-08-28T01:22:12.861Z,101672.50
2022-08-28T01:24:46.768Z,101679.66
2022-08-28T01:27:20.111Z,101680.59
2022-08-28T01:29:56.808Z,101680.63
2022-08-28T01:32:36.426Z,101686.91
2022-08-28T01:35:13.688Z,101687.88
2022-08-28T01:37:46.465Z,101689.66
2022-08-28T01:40:32.632Z,101688.81
2022-08-28T01:43:19.542Z,101693.25
2022-08-28T01:45:56.109Z,101699.44
2022-08-28T01:48:30.891Z,101699.50
2022-08-28T01:51:05.084Z,101704.81
2022-08-28T01:53:38.492Z,101695.03
2022-08-28T01:56:15.191Z,101702.16
2022-08-28T01:58:50.483Z,101698.59
2022-08-28T02:01:22.986Z,101696.00
2022-08-28T02:03:56.049Z,101704.03
2022-08-28T02:06:28.574Z,101696.09
2022-08-28T02:09:01.261Z,101702.38
2022-08-28T02:11:34.088Z,101701.53
2022-08-28T02:14:06.575Z,101706.91
2022-08-28T02:16:38.991Z,101709.69
2022-08-28T02:19:12.106Z,101708.84
2022-08-28T02:21:44.862Z,101712.44
2022-08-28T02:24:18.134Z,101712.50
2022-08-28T02:26:50.568Z,101720.56
2022-08-28T02:29:23.493Z,101713.56
2022-08-28T02:31:55.905Z,101711.91
2022-08-28T02:34:28.392Z,101708.44
2022-08-28T02:37:01.082Z,101712.97
2022-08-28T02:39:33.522Z,101726.25
2022-08-28T02:42:06.631Z,101718.41
2022-08-28T02:44:39.301Z,101727.34
2022-08-28T02:47:11.712Z,101709.69
2022-08-28T02:49:44.814Z,101718.63
2022-08-28T02:52:19.069Z,101712.44
2022-08-28T02:54:51.526Z,101721.38
2022-08-28T02:57:23.919Z,101716.16
2022-08-28T02:59:56.551Z,101710.91
2022-08-28T03:02:29.052Z,101714.53
2022-08-28T03:05:01.508Z,101715.44
2022-08-28T03:07:33.933Z,101719.94
2022-08-28T03:10:07.728Z,101719.13
2022-08-28T03:12:40.145Z,101709.38
2022-08-28T03:15:12.608Z,101718.31
2022-08-28T03:17:45.480Z,101721.00
2022-08-28T03:20:20.595Z,101723.75
2022-08-28T03:23:11.551Z,101723.78
2022-08-28T03:25:44.724Z,101728.28
2022-08-28T03:28:17.358Z,101726.53
2022-08-28T03:30:50.834Z,101729.22
2022-08-28T03:33:24.079Z,101726.56
2022-08-28T03:35:56.579Z,101731.03
2022-08-28T03:38:29.069Z,101733.69
2022-08-28T03:41:01.751Z,101739.91
2022-08-28T03:43:34.147Z,101739.03
2022-08-28T03:46:07.815Z,101739.03
2022-08-28T03:48:42.240Z,101749.66
2022-08-28T03:51:25.493Z,101732.88
2022-08-28T03:54:03.814Z,101746.19
2022-08-28T03:56:36.233Z,101743.53
2022-08-28T03:59:08.705Z,101747.13
2022-08-28T04:01:41.235Z,101737.38
2022-08-28T04:04:13.769Z,101735.63
2022-08-28T04:06:46.508Z,101743.59
2022-08-28T04:09:18.920Z,101744.50
2022-08-28T04:11:52.709Z,101742.75
2022-08-28T04:14:25.212Z,101745.44
2022-08-28T04:17:01.301Z,101734.84
2022-08-28T04:19:34.565Z,101746.38
2022-08-28T04:22:08.195Z,101735.78
2022-08-28T04:24:40.764Z,101742.88
2022-08-28T04:27:14.962Z,101735.84
2022-08-28T04:29:49.091Z,101744.72
2022-08-28T04:32:22.468Z,101754.44
2022-08-28T04:34:54.973Z,101757.09
2022-08-28T04:37:27.853Z,101751.81
2022-08-28T04:40:00.593Z,101754.47
2022-08-28T04:42:33.036Z,101751.84
2022-08-28T04:45:07.031Z,101752.75
2022-08-28T04:47:39.546Z,101758.94
2022-08-28T04:50:11.968Z,101755.44
2022-08-28T04:52:44.449Z,101757.25
2022-08-28T04:55:18.307Z,101761.69
2022-08-28T04:58:06.303Z,101763.44
2022-08-28T05:00:42.220Z,101761.72
2022-08-28T05:03:16.745Z,101767.91
2022-08-28T05:05:53.061Z,101766.16
2022-08-28T05:08:27.740Z,101770.59
2022-08-28T05:11:10.763Z,101779.47
2022-08-28T05:13:43.259Z,101781.25
2022-08-28T05:16:17.796Z,101780.41
2022-08-28T05:18:50.315Z,101784.78
2022-08-28T05:21:23.328Z,101781.22
2022-08-28T05:23:57.721Z,101791.84
2022-08-28T05:26:30.335Z,101794.50
2022-08-28T05:29:03.722Z,101791.84
2022-08-28T05:31:38.997Z,101795.34
2022-08-28T05:34:11.810Z,101794.50
2022-08-28T05:36:44.228Z,101799.81
2022-08-28T05:39:17.113Z,101806.88
2022-08-28T05:41:49.677Z,101804.22
2022-08-28T05:44:22.124Z,101801.53
2022-08-28T05:46:54.548Z,101794.47
2022-08-28T05:49:28.143Z,101793.56
2022-08-28T05:52:00.595Z,101806.84
2022-08-28T05:54:34.017Z,101803.25
2022-08-28T05:57:06.465Z,101806.78
2022-08-28T05:59:38.908Z,101804.03
2022-08-28T06:02:11.344Z,101805.69
2022-08-28T06:04:43.788Z,101807.38
2022-08-28T06:07:16.231Z,101815.19
2022-08-28T06:09:48.824Z,101813.38
2022-08-28T06:12:21.501Z,101820.31
2022-08-28T06:14:54.245Z,101811.34
2022-08-28T06:17:27.871Z,101815.66
2022-08-28T06:20:00.285Z,101809.34
2022-08-28T06:22:32.710Z,101815.41
2022-08-28T06:25:08.102Z,101813.53
2022-08-28T06:27:40.641Z,101817.81
2022-08-28T06:30:13.247Z,101816.84
2022-08-28T06:32:48.161Z,101823.81
2022-08-28T06:35:20.621Z,101822.81
2022-08-28T06:37:53.185Z,101825.28
2022-08-28T06:40:25.812Z,101832.28
2022-08-28T06:42:58.232Z,101836.56
2022-08-28T06:45:31.217Z,101836.41
2022-08-28T06:48:03.892Z,101838.97
2022-08-28T06:50:45.467Z,101837.88
2022-08-28T06:53:20.788Z,101840.38
2022-08-28T06:56:26.920Z,101840.19
2022-08-28T06:59:00.253Z,101841.72
2022-08-28T07:01:35.410Z,101838.06
2022-08-28T07:04:10.425Z,101837.78
2022-08-28T07:06:46.898Z,101842.88
2022-08-28T07:09:19.970Z,101837.38
2022-08-28T07:11:53.001Z,101838.97
2022-08-28T07:14:26.370Z,101833.50
2022-08-28T07:16:59.384Z,101847.44
2022-08-28T07:19:31.778Z,101840.16
2022-08-28T07:22:04.769Z,101840.75
2022-08-28T07:24:37.198Z,101843.16
2022-08-28T07:27:09.847Z,101836.72
2022-08-28T07:29:42.228Z,101848.81
2022-08-28T07:32:15.782Z,101835.25
2022-08-28T07:34:49.172Z,101844.63
2022-08-28T07:37:23.222Z,101839.00
2022-08-28T07:39:55.723Z,101847.56
2022-08-28T07:42:46.968Z,101854.34
2022-08-28T07:45:19.413Z,101852.13
2022-08-28T07:47:51.825Z,101865.16
2022-08-28T07:50:24.296Z,101856.16
2022-08-28T07:52:57.655Z,101856.84
2022-08-28T07:55:31.655Z,101853.94
2022-08-28T07:58:04.047Z,101863.38
2022-08-28T08:00:36.508Z,101853.28
2022-08-28T08:03:09.137Z,101858.41
2022-08-28T08:05:41.649Z,101861.63
2022-08-28T08:08:14.352Z,101857.44
2022-08-28T08:10:58.338Z,101872.22
2022-08-28T08:13:32.787Z,101871.63
2022-08-28T08:16:08.262Z,101866.81
2022-08-28T08:18:41.430Z,101867.38
2022-08-28T08:21:16.464Z,101872.91
2022-08-28T08:23:49.757Z,101887.84
2022-08-28T08:26:25.080Z,101876.78
2022-08-28T08:28:58.032Z,101881.75
2022-08-28T08:31:32.737Z,101888.03
2022-08-28T08:34:05.685Z,101883.66
2022-08-28T08:36:39.000Z,101895.97
2022-08-28T08:39:11.616Z,101884.44
2022-08-28T08:41:51.089Z,101881.66
2022-08-28T08:44:33.846Z,101875.00
2022-08-28T08:47:22.612Z,101880.97
2022-08-28T08:49:58.075Z,101880.28
2022-08-28T08:52:47.893Z,101882.19
2022-08-28T08:55:25.094Z,101873.88
2022-08-28T08:58:04.408Z,101872.97
2022-08-28T09:00:52.232Z,101876.25
2022-08-28T09:03:57.088Z,101871.69
2022-08-28T09:06:47.395Z,101866.13
2022-08-28T09:09:40.929Z,101867.84
2022-08-28T09:12:17.728Z,101872.50
2022-08-28T09:15:05.620Z,101872.94
2022-08-28T09:17:57.389Z,101880.03
2022-08-28T09:20:32.450Z,101880.16
2022-08-28T09:23:12.551Z,101879.91
2022-08-28T09:25:50.842Z,101868.63
2022-08-28T09:28:28.902Z,101875.22
2022-08-28T09:31:09.359Z,101878.94
2022-08-28T09:33:48.073Z,101862.38
2022-08-28T09:36:37.633Z,101868.00
2022-08-28T09:39:17.862Z,101869.56
2022-08-28T09:42:33.537Z,101871.63
2022-08-28T09:45:21.248Z,101867.88
2022-08-28T09:47:57.871Z,101877.34
2022-08-28T09:50:38.731Z,101869.50
2022-08-28T09:53:13.999Z,101866.47
2022-08-28T09:55:59.052Z,101863.78
2022-08-28T09:58:39.499Z,101862.59
2022-08-28T10:01:38.268Z,101872.03
2022-08-28T10:04:51.649Z,101885.09
2022-08-28T10:07:27.092Z,101883.72
2022-08-28T10:10:09.942Z,101882.66
2022-08-28T10:12:59.526Z,101885.16
2022-08-28T10:15:42.439Z,101879.84
2022-08-28T10:18:21.686Z,101879.16
2022-08-28T10:21:00.995Z,101873.28
2022-08-28T10:24:01.291Z,101870.19
2022-08-28T10:26:55.397Z,101870.91
2022-08-28T10:29:33.833Z,101874.72
2022-08-28T10:32:44.017Z,101874.69
2022-08-28T10:35:29.003Z,101868.28
2022-08-28T10:38:25.029Z,101873.00
2022-08-28T10:41:05.296Z,101865.31
2022-08-28T10:43:50.135Z,101872.09
2022-08-28T10:46:36.973Z,101875.78
2022-08-28T10:49:38.099Z,101869.75
2022-08-28T10:52:16.031Z,101862.13
2022-08-28T10:54:56.961Z,101878.19
2022-08-28T10:57:50.425Z,101875.28
2022-08-28T11:00:26.295Z,101869.53
2022-08-28T11:03:05.901Z,101862.97
2022-08-28T11:05:53.604Z,101867.19
2022-08-28T11:08:31.352Z,101874.88
2022-08-28T11:11:07.143Z,101870.19
2022-08-28T11:13:45.824Z,101878.13
2022-08-28T11:16:22.240Z,101874.22
2022-08-28T11:19:26.676Z,101874.00
2022-08-28T11:22:14.269Z,101875.28
2022-08-28T11:25:10.847Z,101872.34
2022-08-28T11:28:18.135Z,101874.13
2022-08-28T11:31:05.962Z,101869.94
2022-08-28T11:33:52.794Z,101872.09
2022-08-28T11:36:26.422Z,101876.84
2022-08-28T11:38:58.863Z,101864.41
2022-08-28T11:41:38.381Z,101870.47
2022-08-28T11:44:11.077Z,101865.78
2022-08-28T11:46:47.382Z,101867.16
2022-08-28T11:49:31.724Z,101873.38
2022-08-28T11:52:22.594Z,101873.25
2022-08-28T11:55:13.325Z,101871.41
2022-08-28T12:00:55.795Z,101869.00
2022-08-28T12:03:38.819Z,101875.97
2022-08-28T12:06:13.374Z,101877.38
2022-08-28T12:08:48.773Z,101871.69
2022-08-28T12:11:39.556Z,101873.09
2022-08-28T12:14:13.105Z,101872.06
2022-08-28T12:17:04.891Z,101864.84
2022-08-28T12:19:57.247Z,101866.19
2022-08-28T12:22:53.127Z,101861.63
2022-08-28T12:25:37.656Z,101854.75
2022-08-28T12:28:29.316Z,101864.78
2022-08-28T12:31:01.707Z,101860.75
2022-08-28T12:33:47.281Z,101856.63
2022-08-28T12:36:26.578Z,101856.41
2022-08-28T12:38:59.224Z,101850.91
2022-08-28T12:41:33.077Z,101851.91
2022-08-28T12:44:08.898Z,101858.94
2022-08-28T12:46:43.713Z,101853.56
2022-08-28T12:49:34.748Z,101845.91
2022-08-28T12:52:16.740Z,101849.59
2022-08-28T12:54:51.208Z,101848.78
2022-08-28T12:57:25.346Z,101853.56
2022-08-28T13:00:08.988Z,101850.09
2022-08-28T13:02:42.396Z,101853.06
2022-08-28T13:05:29.394Z,101840.06
2022-08-28T13:08:08.362Z,101839.50
2022-08-28T13:10:48.560Z,101850.13
2022-08-28T13:13:27.328Z,101839.94
2022-08-28T13:16:06.164Z,101841.72
2022-08-28T13:18:49.722Z,101844.19
2022-08-28T13:21:33.949Z,101836.00
2022-08-28T13:24:22.383Z,101829.34
2022-08-28T13:27:02.615Z,101833.28
2022-08-28T13:29:36.888Z,101827.00
2022-08-28T13:32:16.079Z,101823.53
2022-08-28T13:35:09.763Z,101812.72
2022-08-28T13:37:50.276Z,101830.25
2022-08-28T13:43:21.252Z,101822.38
2022-08-28T13:45:54.182Z,101824.91
2022-08-28T13:48:27.661Z,101823.38
2022-08-28T13:51:10.553Z,101823.88
2022-08-28T13:53:43.723Z,101819.06
2022-08-28T13:56:16.305Z,101815.09
2022-08-28T13:58:57.787Z,101812.97
2022-08-28T14:01:49.603Z,101807.19
2022-08-28T14:04:22.431Z,101810.81
2022-08-28T14:06:54.828Z,101804.16
2022-08-28T14:09:27.272Z,101808.31
2022-08-28T14:12:00.087Z,101807.38
2022-08-28T14:14:32.552Z,101803.69
2022-08-28T14:17:06.562Z,101803.19
2022-08-28T14:19:39.362Z,101802.94
2022-08-28T14:22:11.759Z,101810.06
2022-08-28T14:24:44.216Z,101811.50
2022-08-28T14:27:16.815Z,101810.00
2022-08-28T14:29:49.316Z,101812.81
2022-08-28T14:32:21.987Z,101815.84
2022-08-28T14:34:54.641Z,101818.56
2022-08-28T14:37:28.629Z,101805.78
2022-08-28T14:40:01.630Z,101811.09
2022-08-28T14:42:34.312Z,101809.72
2022-08-28T14:45:06.918Z,101802.31
2022-08-28T14:47:39.404Z,101799.47
2022-08-28T14:50:11.950Z,101797.13
2022-08-28T14:52:44.857Z,101796.19
2022-08-28T14:55:21.354Z,101799.94
2022-08-28T14:57:54.026Z,101789.66
2022-08-28T15:00:26.490Z,101781.03
2022-08-28T15:02:59.712Z,101789.94
2022-08-28T15:05:33.844Z,101785.50
2022-08-28T15:08:07.989Z,101777.88
2022-08-28T15:10:42.860Z,101788.34
2022-08-28T15:13:15.484Z,101798.47
2022-08-28T15:15:48.208Z,101790.00
2022-08-28T15:18:21.314Z,101790.50
2022-08-28T15:20:53.839Z,101788.25
2022-08-28T15:23:26.941Z,101777.56
2022-08-28T15:25:59.725Z,101782.94
2022-08-28T15:28:32.341Z,101777.72
2022-08-28T15:31:05.166Z,101784.25
2022-08-28T15:33:39.342Z,101772.03
2022-08-28T15:36:14.674Z,101776.59
2022-08-28T15:39:05.476Z,101781.22
2022-08-28T15:41:38.470Z,101773.25
2022-08-28T15:44:14.911Z,101785.13
2022-08-28T15:46:54.771Z,101775.97
2022-08-28T15:49:31.158Z,101776.25
2022-08-28T15:52:05.352Z,101775.09
2022-08-28T15:54:38.144Z,101770.59
2022-08-28T15:57:10.574Z,101780.31
2022-08-28T15:59:50.039Z,101763.41
2022-08-28T16:02:24.815Z,101759.53
2022-08-28T16:04:58.122Z,101770.31
2022-08-28T16:07:30.568Z,101775.72
2022-08-28T16:10:07.051Z,101766.34
2022-08-28T16:12:40.092Z,101762.94
2022-08-28T16:15:12.994Z,101772.16
2022-08-28T16:17:45.417Z,101767.19
2022-08-28T16:20:17.824Z,101769.91
2022-08-28T16:22:51.665Z,101768.50
2022-08-28T16:25:24.053Z,101773.09
2022-08-28T16:27:56.553Z,101771.38
2022-08-28T16:30:29.167Z,101760.31
2022-08-28T16:33:03.797Z,101779.25
2022-08-28T16:35:49.399Z,101784.94
2022-08-28T16:38:28.010Z,101784.56
2022-08-28T16:41:00.421Z,101781.34
2022-08-28T16:43:32.828Z,101781.75
2022-08-28T16:46:09.961Z,101785.97
2022-08-28T16:48:44.064Z,101793.41
2022-08-28T16:51:17.743Z,101783.22
2022-08-28T16:53:50.159Z,101778.53
2022-08-28T16:56:24.148Z,101777.50
2022-08-28T16:58:57.726Z,101779.25
2022-08-28T17:01:30.431Z,101774.69
2022-08-28T17:04:03.417Z,101774.22
2022-08-28T17:06:35.819Z,101764.09
2022-08-28T17:09:08.260Z,101772.56
2022-08-28T17:11:40.721Z,101773.38
2022-08-28T17:14:13.190Z,101773.69
2022-08-28T17:16:45.881Z,101769.91
2022-08-28T17:19:19.223Z,101775.16
2022-08-28T17:22:10.497Z,101771.56
2022-08-28T17:24:42.940Z,101767.72
2022-08-28T17:27:16.604Z,101773.63
2022-08-28T17:29:55.229Z,101775.59
2022-08-28T17:32:28.717Z,101781.25
2022-08-28T17:35:01.808Z,101780.03
2022-08-28T17:37:34.220Z,101784.69
2022-08-28T17:40:12.871Z,101788.44
2022-08-28T17:42:47.872Z,101776.13
2022-08-28T17:45:20.764Z,101781.34
2022-08-28T17:47:53.160Z,101782.31
2022-08-28T17:50:25.944Z,101781.31
2022-08-28T17:52:58.410Z,101780.75
2022-08-28T17:55:30.872Z,101782.69
2022-08-28T17:58:03.594Z,101785.69
2022-08-28T18:00:36.623Z,101785.78
2022-08-28T18:03:09.405Z,101789.69
2022-08-28T18:05:41.833Z,101784.22
2022-08-28T18:08:14.344Z,101779.69
2022-08-28T18:10:47.179Z,101789.06
2022-08-28T18:13:19.592Z,101790.13
2022-08-28T18:15:56.849Z,101790.88
2022-08-28T18:18:36.203Z,101791.72
2022-08-28T18:21:10.728Z,101794.91
2022-08-28T18:23:43.159Z,101794.63
2022-08-28T18:26:17.449Z,101795.00
2022-08-28T18:28:50.160Z,101792.88
2022-08-28T18:31:23.213Z,101797.84
2022-08-28T18:33:55.725Z,101796.47
2022-08-28T18:36:28.294Z,101800.59
2022-08-28T18:39:00.839Z,101801.81
2022-08-28T18:41:43.628Z,101809.34
2022-08-28T18:44:18.388Z,101807.19
2022-08-28T18:46:53.821Z,101811.09
2022-08-28T18:49:26.995Z,101816.78
2022-08-28T18:51:59.427Z,101819.75
2022-08-28T18:54:31.984Z,101821.00
2022-08-28T18:57:05.684Z,101824.78
2022-08-28T18:59:38.439Z,101828.59
2022-08-28T19:02:10.992Z,101828.88
2022-08-28T19:04:44.916Z,101834.38
2022-08-28T19:07:17.378Z,101844.44
2022-08-28T19:09:49.830Z,101842.03
2022-08-28T19:12:22.321Z,101842.31
2022-08-28T19:14:56.444Z,101846.88
2022-08-28T19:17:28.981Z,101848.91
2022-08-28T19:20:05.903Z,101855.41
2022-08-28T19:22:38.731Z,101861.91
2022-08-28T19:25:27.764Z,101859.47
2022-08-28T19:28:01.958Z,101859.56
2022-08-28T19:30:35.051Z,101861.59
2022-08-28T19:33:07.488Z,101852.00
2022-08-28T19:35:40.035Z,101863.81
2022-08-28T19:38:12.627Z,101860.41
2022-08-28T19:40:45.443Z,101864.91
2022-08-28T19:43:18.089Z,101865.97
2022-08-28T19:45:50.962Z,101865.25
2022-08-28T19:48:23.711Z,101869.84
2022-08-28T19:51:07.943Z,101863.81
2022-08-28T19:53:57.872Z,101871.09
2022-08-28T19:56:33.576Z,101878.38
2022-08-28T19:59:07.393Z,101880.28
2022-08-28T20:01:43.394Z,101880.50
2022-08-28T20:04:17.630Z,101886.03
2022-08-28T20:06:50.266Z,101887.03
2022-08-28T20:09:23.227Z,101888.06
2022-08-28T20:11:55.651Z,101885.53
2022-08-28T20:14:28.068Z,101891.03
2022-08-28T20:17:00.536Z,101894.72
2022-08-28T20:19:33.351Z,101895.72
2022-08-28T20:22:05.981Z,101895.94
2022-08-28T20:24:39.341Z,101902.25
2022-08-28T20:27:11.744Z,101904.09
2022-08-28T20:29:44.151Z,101897.91
2022-08-28T20:32:16.968Z,101909.44
2022-08-28T20:34:49.419Z,101904.16
2022-08-28T20:37:21.941Z,101900.66
2022-08-28T20:39:58.409Z,101896.31
2022-08-28T20:42:31.708Z,101900.88
2022-08-28T20:45:04.709Z,101906.22
2022-08-28T20:47:37.097Z,101911.69
2022-08-28T20:50:10.311Z,101908.25
2022-08-28T20:52:42.736Z,101911.00
2022-08-28T20:55:15.274Z,101920.78
2022-08-28T20:57:47.674Z,101925.34
2022-08-28T21:00:20.140Z,101928.94
2022-08-28T21:02:52.987Z,101938.91
2022-08-28T21:05:25.775Z,101934.59
2022-08-28T21:07:58.263Z,101932.97
2022-08-28T21:10:30.677Z,101937.47
2022-08-28T21:13:04.277Z,101934.03
2022-08-28T21:15:37.696Z,101933.31
2022-08-28T21:18:10.428Z,101940.53
2022-08-28T21:20:44.648Z,101943.38
2022-08-28T21:23:17.047Z,101939.03
2022-08-28T21:25:50.281Z,101947.94
2022-08-28T21:28:22.781Z,101942.63
2022-08-28T21:30:55.234Z,101939.16
2022-08-28T21:33:27.745Z,101938.34
2022-08-28T21:36:00.297Z,101941.00
2022-08-28T21:38:32.719Z,101934.88
2022-08-28T21:41:12.325Z,101932.28
2022-08-28T21:43:46.518Z,101942.03
2022-08-28T21:46:19.025Z,101946.66
2022-08-28T21:48:53.319Z,101950.28
2022-08-28T21:51:26.168Z,101948.56
2022-08-28T21:54:00.170Z,101953.00
2022-08-28T21:56:32.668Z,101948.59
2022-08-28T21:59:05.199Z,101942.44
2022-08-28T22:01:37.895Z,101942.50
2022-08-28T22:04:10.465Z,101947.09
2022-08-28T22:06:42.928Z,101941.88
2022-08-28T22:09:15.360Z,101940.25
2022-08-28T22:11:47.888Z,101946.53
2022-08-28T22:14:20.930Z,101950.16
2022-08-28T22:16:53.404Z,101939.63
2022-08-28T22:19:25.851Z,101943.28
2022-08-28T22:22:17.068Z,101948.66
2022-08-28T22:24:49.523Z,101952.34
2022-08-28T22:27:22.470Z,101948.88
2022-08-28T22:29:55.780Z,101956.97
2022-08-28T22:32:28.306Z,101953.50
2022-08-28T22:35:00.841Z,101945.59
2022-08-28T22:37:33.816Z,101945.72
2022-08-28T22:40:09.550Z,101944.94
2022-08-28T22:42:46.086Z,101947.72
2022-08-28T22:45:19.281Z,101953.09
2022-08-28T22:47:52.848Z,101949.63
2022-08-28T22:50:25.599Z,101949.72
2022-08-28T22:52:58.495Z,101952.34
2022-08-28T22:55:31.052Z,101951.53
2022-08-28T22:58:04.248Z,101951.59
2022-08-28T23:00:38.342Z,101953.47
2022-08-28T23:03:10.806Z,101955.28
2022-08-28T23:05:43.248Z,101953.56
2022-08-28T23:08:15.915Z,101947.41
2022-08-28T23:10:58.935Z,101943.84
2022-08-28T23:13:32.985Z,101946.50
2022-08-28T23:16:06.904Z,101950.03
2022-08-28T23:19:04.292Z,101958.91
2022-08-28T23:21:32.123Z,101946.56
2022-08-28T23:24:05.793Z,101943.09
2022-08-28T23:26:38.209Z,101946.72
2022-08-28T23:29:11.692Z,101947.66
2022-08-28T23:31:44.579Z,101949.47
2022-08-28T23:34:17.059Z,101942.47
2022-08-28T23:36:49.849Z,101946.03
2022-08-28T23:39:22.903Z,101944.31
2022-08-28T23:41:57.116Z,101937.22
2022-08-28T23:44:29.576Z,101947.91
2022-08-28T23:47:03.720Z,101947.94
2022-08-28T23:49:41.633Z,101946.22
2022-08-28T23:52:15.288Z,101940.94
2022-08-28T23:54:47.776Z,101944.53
2022-08-28T23:57:20.315Z,101954.31
2022-08-28T23:59:52.775Z,101946.41
